sensor_id;sensor_type;location;lat;lon;timestamp;pressure;altitude;pressure_sealevel;temperature;humidity
66762;BME280;53672;48.176;16.338;2023-02-04T00:04:49;99131.53;;;6.05;71.94
66762;BME280;53672;48.176;16.338;2023-02-04T00:09:51;99131.03;;;6.08;73.28
66762;BME280;53672;48.176;16.338;2023-02-04T00:14:51;99124.63;;;6.09;74.56
66762;BME280;53672;48.176;16.338;2023-02-04T00:19:52;99125.88;;;6.02;74.72
66762;BME280;53672;48.176;16.338;2023-02-04T00:24:54;99130.09;;;5.98;74.36
66762;BME280;53672;48.176;16.338;2023-02-04T00:29:54;99131.47;;;6.00;73.27
66762;BME280;53672;48.176;16.338;2023-02-04T00:34:55;99125.91;;;6.07;72.53
66762;BME280;53672;48.176;16.338;2023-02-04T00:39:57;99120.34;;;6.08;70.94
66762;BME280;53672;48.176;16.338;2023-02-04T00:44:57;99112.09;;;6.15;68.95
66762;BME280;53672;48.176;16.338;2023-02-04T00:49:58;99109.47;;;6.20;66.48
66762;BME280;53672;48.176;16.338;2023-02-04T00:55:00;99090.25;;;6.23;65.83
66762;BME280;53672;48.176;16.338;2023-02-04T01:00:00;99087.91;;;6.32;64.89
66762;BME280;53672;48.176;16.338;2023-02-04T01:05:01;99079.66;;;6.38;64.24
66762;BME280;53672;48.176;16.338;2023-02-04T01:10:03;99064.66;;;6.37;66.06
66762;BME280;53672;48.176;16.338;2023-02-04T01:15:04;99062.78;;;6.33;67.42
66762;BME280;53672;48.176;16.338;2023-02-04T01:20:06;99062.09;;;6.21;68.74
66762;BME280;53672;48.176;16.338;2023-02-04T01:25:08;99059.69;;;6.19;69.15
66762;BME280;53672;48.176;16.338;2023-02-04T01:30:10;99059.94;;;6.18;69.45
66762;BME280;53672;48.176;16.338;2023-02-04T01:35:11;99049.25;;;6.18;69.87
66762;BME280;53672;48.176;16.338;2023-02-04T01:40:13;99050.56;;;6.15;70.03
66762;BME280;53672;48.176;16.338;2023-02-04T01:45:14;99054.25;;;6.09;70.85
66762;BME280;53672;48.176;16.338;2023-02-04T01:50:15;99050.16;;;6.01;71.82
66762;BME280;53672;48.176;16.338;2023-02-04T01:55:19;99057.63;;;5.99;72.84
66762;BME280;53672;48.176;16.338;2023-02-04T02:00:24;99067.16;;;5.90;73.29
66762;BME280;53672;48.176;16.338;2023-02-04T02:05:27;99058.03;;;5.86;73.45
66762;BME280;53672;48.176;16.338;2023-02-04T02:10:32;99064.41;;;5.85;73.01
66762;BME280;53672;48.176;16.338;2023-02-04T02:15:34;99056.16;;;5.87;72.30
66762;BME280;53672;48.176;16.338;2023-02-04T02:20:35;99055.97;;;5.93;71.57
66762;BME280;53672;48.176;16.338;2023-02-04T02:25:37;99053.34;;;5.98;71.30
66762;BME280;53672;48.176;16.338;2023-02-04T02:30:38;99057.63;;;5.99;71.48
66762;BME280;53672;48.176;16.338;2023-02-04T02:35:39;99062.72;;;6.01;71.81
66762;BME280;53672;48.176;16.338;2023-02-04T02:40:41;99063.84;;;6.05;70.11
66762;BME280;53672;48.176;16.338;2023-02-04T02:45:42;99049.13;;;6.02;71.26
66762;BME280;53672;48.176;16.338;2023-02-04T02:50:43;99055.06;;;6.09;70.33
66762;BME280;53672;48.176;16.338;2023-02-04T02:55:46;99050.25;;;6.11;68.34
66762;BME280;53672;48.176;16.338;2023-02-04T03:00:46;99042.69;;;6.03;69.02
66762;BME280;53672;48.176;16.338;2023-02-04T03:05:50;99047.13;;;6.20;67.11
66762;BME280;53672;48.176;16.338;2023-02-04T03:10:53;99071.31;;;6.30;65.79
66762;BME280;53672;48.176;16.338;2023-02-04T03:15:54;99027.72;;;6.34;65.17
66762;BME280;53672;48.176;16.338;2023-02-04T03:20:55;99050.22;;;6.38;66.26
66762;BME280;53672;48.176;16.338;2023-02-04T03:25:57;99057.22;;;6.39;65.92
66762;BME280;53672;48.176;16.338;2023-02-04T03:30:58;99044.06;;;6.38;65.74
66762;BME280;53672;48.176;16.338;2023-02-04T03:35:58;99045.44;;;6.40;65.50
66762;BME280;53672;48.176;16.338;2023-02-04T03:41:00;99028.00;;;6.38;64.98
66762;BME280;53672;48.176;16.338;2023-02-04T03:46:01;99018.09;;;6.38;64.96
66762;BME280;53672;48.176;16.338;2023-02-04T03:51:02;99071.94;;;6.42;65.29
66762;BME280;53672;48.176;16.338;2023-02-04T03:56:04;99088.50;;;6.39;66.98
66762;BME280;53672;48.176;16.338;2023-02-04T04:01:05;99086.00;;;6.27;69.92
66762;BME280;53672;48.176;16.338;2023-02-04T04:06:06;99096.06;;;5.93;73.92
66762;BME280;53672;48.176;16.338;2023-02-04T04:11:08;99092.47;;;5.61;76.81
66762;BME280;53672;48.176;16.338;2023-02-04T04:16:08;99109.44;;;5.50;77.40
66762;BME280;53672;48.176;16.338;2023-02-04T04:21:08;99158.31;;;5.29;79.49
66762;BME280;53672;48.176;16.338;2023-02-04T04:26:10;99191.22;;;4.23;87.51
66762;BME280;53672;48.176;16.338;2023-02-04T04:31:11;99206.63;;;3.92;92.01
66762;BME280;53672;48.176;16.338;2023-02-04T04:36:11;99225.75;;;3.78;93.12
66762;BME280;53672;48.176;16.338;2023-02-04T04:41:13;99254.84;;;3.79;93.05
66762;BME280;53672;48.176;16.338;2023-02-04T04:46:14;99277.44;;;3.88;93.04
66762;BME280;53672;48.176;16.338;2023-02-04T04:51:14;99307.47;;;3.72;89.70
66762;BME280;53672;48.176;16.338;2023-02-04T04:56:16;99328.31;;;3.52;89.32
66762;BME280;53672;48.176;16.338;2023-02-04T05:01:17;99336.16;;;3.47;82.23
66762;BME280;53672;48.176;16.338;2023-02-04T05:06:17;99361.88;;;3.53;80.52
66762;BME280;53672;48.176;16.338;2023-02-04T05:11:19;99379.03;;;3.57;75.66
66762;BME280;53672;48.176;16.338;2023-02-04T05:16:20;99387.50;;;3.54;74.31
66762;BME280;53672;48.176;16.338;2023-02-04T05:21:20;99389.56;;;3.40;69.31
66762;BME280;53672;48.176;16.338;2023-02-04T05:26:22;99407.84;;;3.37;67.81
66762;BME280;53672;48.176;16.338;2023-02-04T05:31:23;99454.41;;;3.34;68.17
66762;BME280;53672;48.176;16.338;2023-02-04T05:36:23;99464.13;;;3.29;68.93
66762;BME280;53672;48.176;16.338;2023-02-04T05:41:25;99457.88;;;3.35;67.08
66762;BME280;53672;48.176;16.338;2023-02-04T05:46:26;99473.16;;;3.39;68.16
66762;BME280;53672;48.176;16.338;2023-02-04T05:51:26;99501.22;;;3.42;67.20
66762;BME280;53672;48.176;16.338;2023-02-04T05:56:28;99520.44;;;3.44;66.37
66762;BME280;53672;48.176;16.338;2023-02-04T06:01:28;99522.03;;;3.33;66.69
66762;BME280;53672;48.176;16.338;2023-02-04T06:06:29;99542.88;;;3.36;65.93
66762;BME280;53672;48.176;16.338;2023-02-04T06:11:31;99564.94;;;3.43;65.05
66762;BME280;53672;48.176;16.338;2023-02-04T06:16:31;99576.19;;;3.45;64.35
66762;BME280;53672;48.176;16.338;2023-02-04T06:21:32;99609.41;;;3.43;65.26
66762;BME280;53672;48.176;16.338;2023-02-04T06:26:34;99629.31;;;3.40;65.98
66762;BME280;53672;48.176;16.338;2023-02-04T06:31:34;99658.84;;;3.39;66.73
66762;BME280;53672;48.176;16.338;2023-02-04T06:36:35;99658.47;;;3.35;66.40
66762;BME280;53672;48.176;16.338;2023-02-04T06:41:37;99669.13;;;3.35;66.23
66762;BME280;53672;48.176;16.338;2023-02-04T06:46:37;99684.38;;;3.28;67.32
66762;BME280;53672;48.176;16.338;2023-02-04T06:51:38;99711.22;;;3.27;68.06
66762;BME280;53672;48.176;16.338;2023-02-04T06:56:40;99732.00;;;3.18;66.33
66762;BME280;53672;48.176;16.338;2023-02-04T07:01:40;99741.00;;;3.17;66.58
66762;BME280;53672;48.176;16.338;2023-02-04T07:06:41;99775.25;;;3.14;66.22
66762;BME280;53672;48.176;16.338;2023-02-04T07:11:43;99777.13;;;3.06;67.31
66762;BME280;53672;48.176;16.338;2023-02-04T07:16:43;99810.94;;;3.06;66.92
66762;BME280;53672;48.176;16.338;2023-02-04T07:21:44;99837.44;;;2.94;69.21
66762;BME280;53672;48.176;16.338;2023-02-04T07:26:45;99863.44;;;2.92;67.65
66762;BME280;53672;48.176;16.338;2023-02-04T07:31:46;99890.72;;;2.81;69.07
66762;BME280;53672;48.176;16.338;2023-02-04T07:36:47;99916.59;;;2.61;65.55
66762;BME280;53672;48.176;16.338;2023-02-04T07:41:49;99931.72;;;2.67;60.96
66762;BME280;53672;48.176;16.338;2023-02-04T07:46:49;99951.75;;;2.76;59.24
66762;BME280;53672;48.176;16.338;2023-02-04T07:51:50;99980.19;;;2.82;60.09
66762;BME280;53672;48.176;16.338;2023-02-04T07:56:52;99994.34;;;2.83;62.66
66762;BME280;53672;48.176;16.338;2023-02-04T08:01:52;100004.38;;;2.68;66.79
66762;BME280;53672;48.176;16.338;2023-02-04T08:06:53;100032.25;;;2.59;67.79
66762;BME280;53672;48.176;16.338;2023-02-04T08:11:55;100056.59;;;2.69;67.33
66762;BME280;53672;48.176;16.338;2023-02-04T08:16:55;100067.84;;;2.90;69.48
66762;BME280;53672;48.176;16.338;2023-02-04T08:21:56;100076.25;;;2.81;63.65
66762;BME280;53672;48.176;16.338;2023-02-04T08:26:57;100086.88;;;3.00;62.50
66762;BME280;53672;48.176;16.338;2023-02-04T08:31:58;100095.28;;;4.37;56.75
66762;BME280;53672;48.176;16.338;2023-02-04T08:36:58;100104.66;;;5.69;52.95
66762;BME280;53672;48.176;16.338;2023-02-04T08:42:00;100119.63;;;6.77;48.44
66762;BME280;53672;48.176;16.338;2023-02-04T08:47:01;100128.06;;;5.37;49.40
66762;BME280;53672;48.176;16.338;2023-02-04T08:52:02;100154.56;;;4.95;50.66
66762;BME280;53672;48.176;16.338;2023-02-04T08:57:04;100169.84;;;6.40;48.62
66762;BME280;53672;48.176;16.338;2023-02-04T09:02:05;100175.88;;;12.83;35.41
66762;BME280;53672;48.176;16.338;2023-02-04T09:07:05;100172.50;;;15.24;28.21
66762;BME280;53672;48.176;16.338;2023-02-04T09:12:07;100219.25;;;18.16;24.77
66762;BME280;53672;48.176;16.338;2023-02-04T09:17:07;100204.25;;;11.93;34.70
66762;BME280;53672;48.176;16.338;2023-02-04T09:22:08;100239.59;;;7.98;43.21
66762;BME280;53672;48.176;16.338;2023-02-04T09:27:10;100248.78;;;5.77;48.16
66762;BME280;53672;48.176;16.338;2023-02-04T09:32:10;100273.38;;;5.18;52.11
66762;BME280;53672;48.176;16.338;2023-02-04T09:37:11;100289.13;;;4.63;56.63
66762;BME280;53672;48.176;16.338;2023-02-04T09:42:13;100303.78;;;3.83;54.19
66762;BME280;53672;48.176;16.338;2023-02-04T09:47:17;100295.97;;;4.46;51.46
66762;BME280;53672;48.176;16.338;2023-02-04T09:52:20;100310.50;;;3.99;52.38
66762;BME280;53672;48.176;16.338;2023-02-04T09:57:22;100320.56;;;4.03;51.52
66762;BME280;53672;48.176;16.338;2023-02-04T10:02:24;100330.13;;;4.31;51.79
66762;BME280;53672;48.176;16.338;2023-02-04T10:07:25;100328.72;;;4.73;50.40
66762;BME280;53672;48.176;16.338;2023-02-04T10:12:27;100359.66;;;4.87;47.68
66762;BME280;53672;48.176;16.338;2023-02-04T10:17:28;100378.81;;;4.13;47.59
66762;BME280;53672;48.176;16.338;2023-02-04T10:22:29;100388.84;;;4.11;48.32
66762;BME280;53672;48.176;16.338;2023-02-04T10:27:31;100406.81;;;4.68;47.07
66762;BME280;53672;48.176;16.338;2023-02-04T10:32:32;100388.94;;;6.98;42.31
66762;BME280;53672;48.176;16.338;2023-02-04T10:37:33;100391.00;;;8.32;39.56
66762;BME280;53672;48.176;16.338;2023-02-04T10:42:35;100404.00;;;12.42;30.41
66762;BME280;53672;48.176;16.338;2023-02-04T10:47:35;100402.63;;;15.62;26.69
66762;BME280;53672;48.176;16.338;2023-02-04T10:52:38;100416.50;;;18.03;24.17
66762;BME280;53672;48.176;16.338;2023-02-04T10:57:43;100394.25;;;23.65;17.30
66762;BME280;53672;48.176;16.338;2023-02-04T11:02:48;100404.50;;;16.35;26.01
66762;BME280;53672;48.176;16.338;2023-02-04T11:07:51;100409.63;;;11.18;32.17
66762;BME280;53672;48.176;16.338;2023-02-04T11:13:01;100417.19;;;7.42;41.99
66762;BME280;53672;48.176;16.338;2023-02-04T11:18:03;100436.09;;;5.70;47.02
66762;BME280;53672;48.176;16.338;2023-02-04T11:23:15;100430.53;;;6.46;45.95
66762;BME280;53672;48.176;16.338;2023-02-04T11:28:24;100435.41;;;10.87;38.49
66762;BME280;53672;48.176;16.338;2023-02-04T11:33:36;100437.97;;;17.35;26.25
66762;BME280;53672;48.176;16.338;2023-02-04T11:38:37;100425.47;;;21.66;19.82
66762;BME280;53672;48.176;16.338;2023-02-04T11:43:39;100445.84;;;24.75;18.80
66762;BME280;53672;48.176;16.338;2023-02-04T11:48:40;100435.78;;;18.25;22.51
66762;BME280;53672;48.176;16.338;2023-02-04T11:53:41;100463.53;;;11.83;30.68
66762;BME280;53672;48.176;16.338;2023-02-04T11:58:44;100459.78;;;7.91;40.81
66762;BME280;53672;48.176;16.338;2023-02-04T12:03:46;100488.44;;;6.65;42.53
66762;BME280;53672;48.176;16.338;2023-02-04T12:08:46;100481.91;;;5.80;43.35
66762;BME280;53672;48.176;16.338;2023-02-04T12:13:50;100492.22;;;5.77;44.21
66762;BME280;53672;48.176;16.338;2023-02-04T12:18:52;100487.94;;;5.69;43.33
66762;BME280;53672;48.176;16.338;2023-02-04T12:23:52;100494.25;;;5.43;46.50
66762;BME280;53672;48.176;16.338;2023-02-04T12:28:54;100481.00;;;5.24;45.52
66762;BME280;53672;48.176;16.338;2023-02-04T12:33:55;100479.19;;;5.04;45.00
66762;BME280;53672;48.176;16.338;2023-02-04T12:38:55;100476.66;;;4.45;46.06
66762;BME280;53672;48.176;16.338;2023-02-04T12:43:57;100485.31;;;4.08;46.59
66762;BME280;53672;48.176;16.338;2023-02-04T12:48:57;100499.25;;;4.43;44.81
66762;BME280;53672;48.176;16.338;2023-02-04T12:53:58;100497.97;;;5.36;45.58
66762;BME280;53672;48.176;16.338;2023-02-04T12:59:00;100510.22;;;5.05;43.05
66762;BME280;53672;48.176;16.338;2023-02-04T13:04:00;100513.19;;;5.80;40.74
66762;BME280;53672;48.176;16.338;2023-02-04T13:09:01;100500.81;;;5.85;39.66
66762;BME280;53672;48.176;16.338;2023-02-04T13:14:03;100519.53;;;5.47;42.21
66762;BME280;53672;48.176;16.338;2023-02-04T13:19:03;100513.44;;;5.34;40.92
66762;BME280;53672;48.176;16.338;2023-02-04T13:24:04;100533.75;;;4.64;41.67
66762;BME280;53672;48.176;16.338;2023-02-04T13:29:06;100538.47;;;4.23;44.32
66762;BME280;53672;48.176;16.338;2023-02-04T13:34:06;100545.88;;;4.14;46.42
66762;BME280;53672;48.176;16.338;2023-02-04T13:39:07;100536.13;;;3.80;44.07
66762;BME280;53672;48.176;16.338;2023-02-04T13:44:09;100548.66;;;3.26;48.72
66762;BME280;53672;48.176;16.338;2023-02-04T13:49:09;100551.78;;;3.36;46.22
66762;BME280;53672;48.176;16.338;2023-02-04T13:54:10;100567.50;;;3.65;47.48
66762;BME280;53672;48.176;16.338;2023-02-04T13:59:12;100577.69;;;3.48;46.29
66762;BME280;53672;48.176;16.338;2023-02-04T14:04:12;100578.13;;;3.58;46.54
66762;BME280;53672;48.176;16.338;2023-02-04T14:09:13;100582.78;;;3.43;47.61
66762;BME280;53672;48.176;16.338;2023-02-04T14:14:15;100580.56;;;3.13;47.26
66762;BME280;53672;48.176;16.338;2023-02-04T14:19:15;100610.91;;;3.12;46.92
66762;BME280;53672;48.176;16.338;2023-02-04T14:24:16;100612.72;;;3.04;46.46
66762;BME280;53672;48.176;16.338;2023-02-04T14:29:18;100606.69;;;2.96;48.34
66762;BME280;53672;48.176;16.338;2023-02-04T14:34:18;100618.75;;;2.92;48.23
66762;BME280;53672;48.176;16.338;2023-02-04T14:39:19;100630.22;;;2.92;50.76
66762;BME280;53672;48.176;16.338;2023-02-04T14:44:21;100632.59;;;2.81;50.22
66762;BME280;53672;48.176;16.338;2023-02-04T14:49:21;100634.31;;;2.67;51.56
66762;BME280;53672;48.176;16.338;2023-02-04T14:54:22;100634.75;;;2.43;51.24
66762;BME280;53672;48.176;16.338;2023-02-04T14:59:24;100643.44;;;2.37;51.49
66762;BME280;53672;48.176;16.338;2023-02-04T15:04:25;100645.00;;;2.46;51.21
66762;BME280;53672;48.176;16.338;2023-02-04T15:09:25;100653.78;;;2.25;54.25
66762;BME280;53672;48.176;16.338;2023-02-04T15:14:28;100665.38;;;2.18;51.90
66762;BME280;53672;48.176;16.338;2023-02-04T15:19:28;100666.84;;;2.05;53.13
66762;BME280;53672;48.176;16.338;2023-02-04T15:24:29;100667.59;;;1.99;52.90
66762;BME280;53672;48.176;16.338;2023-02-04T15:29:31;100665.63;;;1.72;53.79
66762;BME280;53672;48.176;16.338;2023-02-04T15:34:32;100680.41;;;1.45;56.55
66762;BME280;53672;48.176;16.338;2023-02-04T15:39:32;100674.81;;;1.26;58.29
66762;BME280;53672;48.176;16.338;2023-02-04T15:44:34;100687.06;;;1.27;56.41
66762;BME280;53672;48.176;16.338;2023-02-04T15:49:35;100690.91;;;1.24;57.79
66762;BME280;53672;48.176;16.338;2023-02-04T15:54:35;100703.00;;;1.27;56.76
66762;BME280;53672;48.176;16.338;2023-02-04T15:59:37;100706.91;;;1.01;56.43
66762;BME280;53672;48.176;16.338;2023-02-04T16:04:38;100705.69;;;0.89;55.64
66762;BME280;53672;48.176;16.338;2023-02-04T16:09:39;100705.03;;;0.87;54.54
66762;BME280;53672;48.176;16.338;2023-02-04T16:14:41;100710.47;;;0.94;54.89
66762;BME280;53672;48.176;16.338;2023-02-04T16:19:41;100720.47;;;1.07;54.68
66762;BME280;53672;48.176;16.338;2023-02-04T16:24:42;100716.53;;;1.02;54.79
66762;BME280;53672;48.176;16.338;2023-02-04T16:29:44;100727.75;;;0.90;56.39
66762;BME280;53672;48.176;16.338;2023-02-04T16:34:45;100727.53;;;0.77;55.88
66762;BME280;53672;48.176;16.338;2023-02-04T16:39:46;100743.38;;;0.62;56.54
66762;BME280;53672;48.176;16.338;2023-02-04T16:44:48;100746.91;;;0.77;55.32
66762;BME280;53672;48.176;16.338;2023-02-04T16:49:49;100752.97;;;0.86;54.71
66762;BME280;53672;48.176;16.338;2023-02-04T16:54:49;100754.63;;;0.87;54.06
66762;BME280;53672;48.176;16.338;2023-02-04T16:59:52;100761.00;;;1.00;53.14
66762;BME280;53672;48.176;16.338;2023-02-04T17:04:53;100754.84;;;1.00;54.38
66762;BME280;53672;48.176;16.338;2023-02-04T17:09:53;100768.91;;;1.09;52.93
66762;BME280;53672;48.176;16.338;2023-02-04T17:14:55;100761.22;;;1.14;53.52
66762;BME280;53672;48.176;16.338;2023-02-04T17:19:56;100764.53;;;1.16;52.64
66762;BME280;53672;48.176;16.338;2023-02-04T17:24:56;100768.03;;;1.16;53.45
66762;BME280;53672;48.176;16.338;2023-02-04T17:29:58;100779.16;;;1.12;53.21
66762;BME280;53672;48.176;16.338;2023-02-04T17:34:59;100774.78;;;1.19;52.60
66762;BME280;53672;48.176;16.338;2023-02-04T17:40:00;100772.13;;;1.19;54.10
66762;BME280;53672;48.176;16.338;2023-02-04T17:45:03;100769.47;;;1.19;53.75
66762;BME280;53672;48.176;16.338;2023-02-04T17:50:04;100768.75;;;1.25;53.54
66762;BME280;53672;48.176;16.338;2023-02-04T17:55:09;100774.97;;;1.17;53.72
66762;BME280;53672;48.176;16.338;2023-02-04T18:00:17;100754.63;;;1.10;54.80
66762;BME280;53672;48.176;16.338;2023-02-04T18:05:20;100754.16;;;1.06;55.09
66762;BME280;53672;48.176;16.338;2023-02-04T18:10:27;100753.34;;;1.06;55.04
66762;BME280;53672;48.176;16.338;2023-02-04T18:15:32;100773.22;;;1.10;55.42
66762;BME280;53672;48.176;16.338;2023-02-04T18:20:33;100768.91;;;1.09;55.76
66762;BME280;53672;48.176;16.338;2023-02-04T18:25:35;100768.91;;;1.09;55.00
66762;BME280;53672;48.176;16.338;2023-02-04T18:30:37;100762.25;;;1.13;54.54
66762;BME280;53672;48.176;16.338;2023-02-04T18:35:42;100776.16;;;1.15;54.80
66762;BME280;53672;48.176;16.338;2023-02-04T18:40:43;100784.22;;;1.21;55.44
66762;BME280;53672;48.176;16.338;2023-02-04T18:45:45;100777.13;;;1.36;57.81
66762;BME280;53672;48.176;16.338;2023-02-04T18:50:47;100770.47;;;1.18;58.03
66762;BME280;53672;48.176;16.338;2023-02-04T18:55:49;100787.50;;;1.09;56.99
66762;BME280;53672;48.176;16.338;2023-02-04T19:00:55;100781.81;;;1.12;56.33
66762;BME280;53672;48.176;16.338;2023-02-04T19:05:59;100786.13;;;1.13;56.29
66762;BME280;53672;48.176;16.338;2023-02-04T19:11:01;100788.72;;;1.21;56.43
66762;BME280;53672;48.176;16.338;2023-02-04T19:16:14;100794.75;;;1.15;58.20
66762;BME280;53672;48.176;16.338;2023-02-04T19:21:22;100797.34;;;1.23;57.17
66762;BME280;53672;48.176;16.338;2023-02-04T19:26:31;100794.94;;;1.28;56.50
66762;BME280;53672;48.176;16.338;2023-02-04T19:31:33;100803.28;;;1.25;56.84
66762;BME280;53672;48.176;16.338;2023-02-04T19:36:35;100805.09;;;1.24;56.76
66762;BME280;53672;48.176;16.338;2023-02-04T19:41:40;100795.63;;;1.30;57.31
66762;BME280;53672;48.176;16.338;2023-02-04T19:46:46;100791.31;;;1.29;57.69
66762;BME280;53672;48.176;16.338;2023-02-04T19:51:51;100791.09;;;1.30;57.79
66762;BME280;53672;48.176;16.338;2023-02-04T19:56:53;100787.66;;;1.30;57.92
66762;BME280;53672;48.176;16.338;2023-02-04T20:02:02;100794.69;;;1.23;58.36
66762;BME280;53672;48.176;16.338;2023-02-04T20:07:17;100788.34;;;1.24;57.58
66762;BME280;53672;48.176;16.338;2023-02-04T20:12:18;100785.22;;;1.20;57.21
66762;BME280;53672;48.176;16.338;2023-02-04T20:22:45;100801.16;;;1.20;58.24
66762;BME280;53672;48.176;16.338;2023-02-04T20:27:48;100822.19;;;1.30;57.75
66762;BME280;53672;48.176;16.338;2023-02-04T20:32:53;100816.56;;;1.25;58.09
66762;BME280;53672;48.176;16.338;2023-02-04T20:37:57;100828.47;;;1.29;58.90
66762;BME280;53672;48.176;16.338;2023-02-04T20:43:00;100848.06;;;1.28;58.05
66762;BME280;53672;48.176;16.338;2023-02-04T20:48:25;100859.88;;;1.25;60.33
66762;BME280;53672;48.176;16.338;2023-02-04T20:53:35;100880.97;;;0.96;70.10
66762;BME280;53672;48.176;16.338;2023-02-04T20:58:38;100877.28;;;0.74;76.41
66762;BME280;53672;48.176;16.338;2023-02-04T21:03:40;100889.06;;;0.41;81.47
66762;BME280;53672;48.176;16.338;2023-02-04T21:08:43;100872.91;;;0.04;85.96
66762;BME280;53672;48.176;16.338;2023-02-04T21:13:43;100862.38;;;-0.21;87.38
66762;BME280;53672;48.176;16.338;2023-02-04T21:18:46;100865.53;;;-0.41;87.75
66762;BME280;53672;48.176;16.338;2023-02-04T21:23:46;100876.28;;;-0.43;89.44
66762;BME280;53672;48.176;16.338;2023-02-04T21:28:47;100878.78;;;-0.49;90.61
66762;BME280;53672;48.176;16.338;2023-02-04T21:33:50;100868.19;;;-0.58;91.38
66762;BME280;53672;48.176;16.338;2023-02-04T21:38:50;100873.31;;;-0.64;90.77
66762;BME280;53672;48.176;16.338;2023-02-04T21:43:52;100866.03;;;-0.54;88.53
66762;BME280;53672;48.176;16.338;2023-02-04T21:48:54;100862.75;;;-0.48;87.57
66762;BME280;53672;48.176;16.338;2023-02-04T21:53:55;100856.44;;;-0.39;85.22
66762;BME280;53672;48.176;16.338;2023-02-04T21:58:55;100859.38;;;-0.34;83.49
66762;BME280;53672;48.176;16.338;2023-02-04T22:03:57;100874.16;;;-0.31;84.04
66762;BME280;53672;48.176;16.338;2023-02-04T22:08:58;100882.25;;;-0.33;84.64
66762;BME280;53672;48.176;16.338;2023-02-04T22:13:59;100892.66;;;-0.23;85.26
66762;BME280;53672;48.176;16.338;2023-02-04T22:19:01;100902.75;;;-0.11;82.82
66762;BME280;53672;48.176;16.338;2023-02-04T22:24:01;100894.13;;;-0.13;83.19
66762;BME280;53672;48.176;16.338;2023-02-04T22:29:02;100895.13;;;-0.14;81.60
66762;BME280;53672;48.176;16.338;2023-02-04T22:34:04;100896.81;;;-0.29;79.21
66762;BME280;53672;48.176;16.338;2023-02-04T22:39:04;100881.91;;;-0.30;76.92
66762;BME280;53672;48.176;16.338;2023-02-04T22:44:05;100898.66;;;-0.45;78.15
66762;BME280;53672;48.176;16.338;2023-02-04T22:49:07;100894.97;;;-0.44;78.91
66762;BME280;53672;48.176;16.338;2023-02-04T22:54:07;100895.47;;;-0.57;78.02
66762;BME280;53672;48.176;16.338;2023-02-04T22:59:08;100894.66;;;-0.74;77.51
66762;BME280;53672;48.176;16.338;2023-02-04T23:04:09;100903.72;;;-0.84;74.68
66762;BME280;53672;48.176;16.338;2023-02-04T23:09:10;100894.44;;;-1.05;74.43
66762;BME280;53672;48.176;16.338;2023-02-04T23:14:11;100890.75;;;-1.20;72.82
66762;BME280;53672;48.176;16.338;2023-02-04T23:19:13;100887.25;;;-1.28;72.79
66762;BME280;53672;48.176;16.338;2023-02-04T23:24:13;100898.78;;;-1.45;73.05
66762;BME280;53672;48.176;16.338;2023-02-04T23:29:13;100904.38;;;-1.48;75.36
66762;BME280;53672;48.176;16.338;2023-02-04T23:34:15;100886.09;;;-1.34;74.72
66762;BME280;53672;48.176;16.338;2023-02-04T23:39:16;100873.84;;;-1.35;74.77
66762;BME280;53672;48.176;16.338;2023-02-04T23:44:17;100886.25;;;-1.35;74.92
66762;BME280;53672;48.176;16.338;2023-02-04T23:49:19;100905.59;;;-1.35;75.19
66762;BME280;53672;48.176;16.338;2023-02-04T23:54:19;100914.88;;;-1.23;75.44
66762;BME280;53672;48.176;16.338;2023-02-04T23:59:20;100900.38;;;-1.03;75.08
